sensor_id;sensor_type;location;lat;lon;timestamp;pressure;altitude;pressure_sealevel;temperature;humidity
9899;BME280;4988;49.238;6.698;2023-03-24T00:00:04;98045.31;;;11.99;100.00
9899;BME280;4988;49.238;6.698;2023-03-24T00:02:33;98041.53;;;11.88;100.00
9899;BME280;4988;49.238;6.698;2023-03-24T00:05:04;98039.50;;;11.92;100.00
9899;BME280;4988;49.238;6.698;2023-03-24T00:07:30;98029.59;;;11.94;100.00
9899;BME280;4988;49.238;6.698;2023-03-24T00:09:58;98034.28;;;12.03;100.00
9899;BME280;4988;49.238;6.698;2023-03-24T00:12:23;98037.19;;;12.00;100.00
9899;BME280;4988;49.238;6.698;2023-03-24T00:14:49;98032.50;;;12.04;100.00
9899;BME280;4988;49.238;6.698;2023-03-24T00:17:19;98026.22;;;12.05;100.00
9899;BME280;4988;49.238;6.698;2023-03-24T00:19:50;98038.03;;;12.01;100.00
9899;BME280;4988;49.238;6.698;2023-03-24T00:22:15;98037.38;;;11.97;100.00
9899;BME280;4988;49.238;6.698;2023-03-24T00:24:41;98037.31;;;11.99;100.00
9899;BME280;4988;49.238;6.698;2023-03-24T00:27:07;98027.81;;;12.07;100.00
9899;BME280;4988;49.238;6.698;2023-03-24T00:29:32;98035.81;;;12.07;100.00
9899;BME280;4988;49.238;6.698;2023-03-24T00:32:00;98034.72;;;12.10;100.00
9899;BME280;4988;49.238;6.698;2023-03-24T00:34:26;98038.66;;;12.04;100.00
9899;BME280;4988;49.238;6.698;2023-03-24T00:36:51;98033.25;;;12.06;100.00
9899;BME280;4988;49.238;6.698;2023-03-24T00:39:18;98024.81;;;12.12;100.00
9899;BME280;4988;49.238;6.698;2023-03-24T00:41:45;98025.03;;;12.09;100.00
9899;BME280;4988;49.238;6.698;2023-03-24T00:44:13;98021.16;;;12.13;100.00
9899;BME280;4988;49.238;6.698;2023-03-24T00:46:46;98014.16;;;12.12;100.00
9899;BME280;4988;49.238;6.698;2023-03-24T00:49:20;98012.19;;;12.14;100.00
9899;BME280;4988;49.238;6.698;2023-03-24T00:51:50;98008.56;;;12.15;100.00
9899;BME280;4988;49.238;6.698;2023-03-24T00:54:15;98001.53;;;12.14;100.00
9899;BME280;4988;49.238;6.698;2023-03-24T00:56:46;97991.94;;;12.12;100.00
9899;BME280;4988;49.238;6.698;2023-03-24T00:59:13;97982.13;;;12.12;100.00
9899;BME280;4988;49.238;6.698;2023-03-24T01:01:39;97985.75;;;12.11;100.00
9899;BME280;4988;49.238;6.698;2023-03-24T01:04:05;97980.84;;;12.05;100.00
9899;BME280;4988;49.238;6.698;2023-03-24T01:06:31;97986.72;;;12.10;100.00
9899;BME280;4988;49.238;6.698;2023-03-24T01:08:57;97975.28;;;12.08;100.00
9899;BME280;4988;49.238;6.698;2023-03-24T01:11:24;97963.78;;;12.07;100.00
9899;BME280;4988;49.238;6.698;2023-03-24T01:13:51;97958.56;;;12.06;100.00
9899;BME280;4988;49.238;6.698;2023-03-24T01:16:17;97967.00;;;12.00;100.00
9899;BME280;4988;49.238;6.698;2023-03-24T01:18:43;97971.34;;;12.01;100.00
9899;BME280;4988;49.238;6.698;2023-03-24T01:21:10;97979.16;;;12.04;100.00
9899;BME280;4988;49.238;6.698;2023-03-24T01:23:36;97983.81;;;12.13;100.00
9899;BME280;4988;49.238;6.698;2023-03-24T01:26:04;97973.59;;;12.07;100.00
9899;BME280;4988;49.238;6.698;2023-03-24T01:28:30;97980.34;;;12.00;100.00
9899;BME280;4988;49.238;6.698;2023-03-24T01:30:56;97981.50;;;12.09;100.00
9899;BME280;4988;49.238;6.698;2023-03-24T01:33:21;97989.69;;;12.05;100.00
9899;BME280;4988;49.238;6.698;2023-03-24T01:35:47;97982.78;;;12.03;100.00
9899;BME280;4988;49.238;6.698;2023-03-24T01:38:13;97977.44;;;12.03;100.00
9899;BME280;4988;49.238;6.698;2023-03-24T01:40:42;97968.91;;;11.98;100.00
9899;BME280;4988;49.238;6.698;2023-03-24T01:43:19;97967.22;;;11.97;100.00
9899;BME280;4988;49.238;6.698;2023-03-24T01:51:19;97967.91;;;12.25;100.00
9899;BME280;4988;49.238;6.698;2023-03-24T01:53:51;97961.19;;;12.32;100.00
9899;BME280;4988;49.238;6.698;2023-03-24T01:56:17;97957.31;;;12.36;100.00
9899;BME280;4988;49.238;6.698;2023-03-24T01:58:47;97952.16;;;12.46;100.00
9899;BME280;4988;49.238;6.698;2023-03-24T02:01:14;97961.31;;;12.54;100.00
9899;BME280;4988;49.238;6.698;2023-03-24T02:03:41;97951.88;;;12.62;100.00
9899;BME280;4988;49.238;6.698;2023-03-24T02:06:11;97954.75;;;12.59;100.00
9899;BME280;4988;49.238;6.698;2023-03-24T02:08:45;97948.88;;;12.66;100.00
9899;BME280;4988;49.238;6.698;2023-03-24T02:11:13;97943.72;;;12.76;100.00
9899;BME280;4988;49.238;6.698;2023-03-24T02:13:38;97954.69;;;12.96;98.43
9899;BME280;4988;49.238;6.698;2023-03-24T02:16:28;97961.53;;;13.00;97.49
9899;BME280;4988;49.238;6.698;2023-03-24T02:41:07;97982.88;;;12.51;100.00
9899;BME280;4988;49.238;6.698;2023-03-24T02:51:24;97984.94;;;12.35;100.00
9899;BME280;4988;49.238;6.698;2023-03-24T02:59:17;97991.06;;;12.24;100.00
9899;BME280;4988;49.238;6.698;2023-03-24T03:01:51;97994.69;;;12.23;100.00
9899;BME280;4988;49.238;6.698;2023-03-24T03:04:27;97987.88;;;12.19;100.00
9899;BME280;4988;49.238;6.698;2023-03-24T03:06:58;97989.06;;;12.15;100.00
9899;BME280;4988;49.238;6.698;2023-03-24T03:09:26;97985.53;;;12.14;100.00
9899;BME280;4988;49.238;6.698;2023-03-24T03:11:55;97980.19;;;12.14;100.00
9899;BME280;4988;49.238;6.698;2023-03-24T03:14:34;97992.88;;;12.11;100.00
9899;BME280;4988;49.238;6.698;2023-03-24T03:17:06;97988.44;;;12.11;100.00
9899;BME280;4988;49.238;6.698;2023-03-24T03:19:41;97992.16;;;12.09;100.00
9899;BME280;4988;49.238;6.698;2023-03-24T03:22:14;97997.50;;;12.09;100.00
9899;BME280;4988;49.238;6.698;2023-03-24T03:24:43;97998.47;;;12.07;100.00
9899;BME280;4988;49.238;6.698;2023-03-24T03:27:15;98012.00;;;12.04;100.00
9899;BME280;4988;49.238;6.698;2023-03-24T03:29:46;98004.88;;;12.05;100.00
9899;BME280;4988;49.238;6.698;2023-03-24T03:32:19;98009.44;;;12.03;100.00
9899;BME280;4988;49.238;6.698;2023-03-24T03:34:51;98013.19;;;12.00;100.00
9899;BME280;4988;49.238;6.698;2023-03-24T03:39:59;98005.19;;;12.00;100.00
9899;BME280;4988;49.238;6.698;2023-03-24T03:42:28;98001.03;;;11.96;100.00
9899;BME280;4988;49.238;6.698;2023-03-24T03:44:53;98018.09;;;11.94;100.00
9899;BME280;4988;49.238;6.698;2023-03-24T03:47:19;98006.44;;;11.95;100.00
9899;BME280;4988;49.238;6.698;2023-03-24T03:49:47;97996.19;;;11.88;100.00
9899;BME280;4988;49.238;6.698;2023-03-24T03:52:13;97999.94;;;11.86;100.00
9899;BME280;4988;49.238;6.698;2023-03-24T03:54:40;97996.00;;;11.91;100.00
9899;BME280;4988;49.238;6.698;2023-03-24T03:57:07;98002.59;;;11.86;100.00
9899;BME280;4988;49.238;6.698;2023-03-24T03:59:35;98007.28;;;11.82;100.00
9899;BME280;4988;49.238;6.698;2023-03-24T04:02:06;98000.03;;;11.84;100.00
9899;BME280;4988;49.238;6.698;2023-03-24T04:04:44;98000.34;;;11.80;100.00
9899;BME280;4988;49.238;6.698;2023-03-24T04:10:11;97982.13;;;11.86;100.00
9899;BME280;4988;49.238;6.698;2023-03-24T04:13:01;97979.13;;;11.78;100.00
9899;BME280;4988;49.238;6.698;2023-03-24T04:18:29;98001.53;;;11.75;100.00
9899;BME280;4988;49.238;6.698;2023-03-24T04:23:57;97991.72;;;11.76;100.00
9899;BME280;4988;49.238;6.698;2023-03-24T04:26:47;97991.50;;;11.79;100.00
9899;BME280;4988;49.238;6.698;2023-03-24T04:29:44;98002.59;;;11.73;100.00
9899;BME280;4988;49.238;6.698;2023-03-24T04:35:06;98002.81;;;11.70;100.00
9899;BME280;4988;49.238;6.698;2023-03-24T04:37:35;98003.44;;;11.73;100.00
9899;BME280;4988;49.238;6.698;2023-03-24T04:40:07;98003.03;;;11.80;100.00
9899;BME280;4988;49.238;6.698;2023-03-24T04:42:42;98001.44;;;11.77;100.00
9899;BME280;4988;49.238;6.698;2023-03-24T04:45:10;97989.06;;;11.76;100.00
9899;BME280;4988;49.238;6.698;2023-03-24T04:47:47;98001.66;;;11.74;100.00
9899;BME280;4988;49.238;6.698;2023-03-24T04:50:36;97984.34;;;11.80;100.00
9899;BME280;4988;49.238;6.698;2023-03-24T04:53:03;97982.56;;;11.80;100.00
9899;BME280;4988;49.238;6.698;2023-03-24T04:58:14;97993.22;;;11.80;100.00
9899;BME280;4988;49.238;6.698;2023-03-24T05:00:39;98000.47;;;11.78;100.00
9899;BME280;4988;49.238;6.698;2023-03-24T05:03:05;97999.06;;;11.72;100.00
9899;BME280;4988;49.238;6.698;2023-03-24T05:05:31;97993.44;;;11.77;100.00
9899;BME280;4988;49.238;6.698;2023-03-24T05:07:57;97989.81;;;11.78;100.00
9899;BME280;4988;49.238;6.698;2023-03-24T05:10:22;97983.00;;;11.74;100.00
9899;BME280;4988;49.238;6.698;2023-03-24T05:12:48;97988.41;;;11.72;100.00
9899;BME280;4988;49.238;6.698;2023-03-24T05:15:14;97985.75;;;11.85;100.00
9899;BME280;4988;49.238;6.698;2023-03-24T05:17:40;97980.19;;;11.88;100.00
9899;BME280;4988;49.238;6.698;2023-03-24T05:20:06;97979.88;;;11.93;100.00
9899;BME280;4988;49.238;6.698;2023-03-24T05:22:38;97977.63;;;11.87;100.00
9899;BME280;4988;49.238;6.698;2023-03-24T05:25:04;97968.16;;;11.83;100.00
9899;BME280;4988;49.238;6.698;2023-03-24T05:27:30;97966.00;;;11.88;100.00
9899;BME280;4988;49.238;6.698;2023-03-24T05:29:55;97960.88;;;11.85;100.00
9899;BME280;4988;49.238;6.698;2023-03-24T05:32:20;97963.59;;;11.98;100.00
9899;BME280;4988;49.238;6.698;2023-03-24T05:34:46;97969.31;;;11.91;100.00
9899;BME280;4988;49.238;6.698;2023-03-24T05:37:11;97976.03;;;11.84;100.00
9899;BME280;4988;49.238;6.698;2023-03-24T05:39:38;97980.84;;;11.79;100.00
9899;BME280;4988;49.238;6.698;2023-03-24T05:42:04;97982.13;;;11.86;100.00
9899;BME280;4988;49.238;6.698;2023-03-24T05:44:29;97984.03;;;11.84;100.00
9899;BME280;4988;49.238;6.698;2023-03-24T05:46:55;97983.19;;;11.84;100.00
9899;BME280;4988;49.238;6.698;2023-03-24T05:49:20;97988.41;;;11.85;100.00
9899;BME280;4988;49.238;6.698;2023-03-24T05:51:45;97985.75;;;11.85;100.00
9899;BME280;4988;49.238;6.698;2023-03-24T05:54:11;97990.56;;;11.80;100.00
9899;BME280;4988;49.238;6.698;2023-03-24T05:56:36;97988.41;;;11.85;100.00
9899;BME280;4988;49.238;6.698;2023-03-24T05:59:01;97991.09;;;11.85;100.00
9899;BME280;4988;49.238;6.698;2023-03-24T06:01:27;97998.75;;;11.77;100.00
9899;BME280;4988;49.238;6.698;2023-03-24T06:03:53;98003.03;;;11.80;100.00
9899;BME280;4988;49.238;6.698;2023-03-24T06:06:18;98008.78;;;11.73;100.00
9899;BME280;4988;49.238;6.698;2023-03-24T06:08:43;98014.97;;;11.74;100.00
9899;BME280;4988;49.238;6.698;2023-03-24T06:11:10;98012.41;;;11.72;100.00
9899;BME280;4988;49.238;6.698;2023-03-24T06:13:36;98009.72;;;11.72;100.00
9899;BME280;4988;49.238;6.698;2023-03-24T06:16:01;98017.19;;;11.67;100.00
9899;BME280;4988;49.238;6.698;2023-03-24T06:18:27;98017.50;;;11.63;100.00
9899;BME280;4988;49.238;6.698;2023-03-24T06:20:53;98021.03;;;11.63;100.00
9899;BME280;4988;49.238;6.698;2023-03-24T06:23:26;98019.22;;;11.64;100.00
9899;BME280;4988;49.238;6.698;2023-03-24T06:25:54;98025.31;;;11.66;100.00
9899;BME280;4988;49.238;6.698;2023-03-24T06:28:21;98019.22;;;11.64;100.00
9899;BME280;4988;49.238;6.698;2023-03-24T06:30:46;98013.88;;;11.64;100.00
9899;BME280;4988;49.238;6.698;2023-03-24T06:33:13;98016.03;;;11.58;100.00
9899;BME280;4988;49.238;6.698;2023-03-24T06:35:39;98031.06;;;11.59;100.00
9899;BME280;4988;49.238;6.698;2023-03-24T06:38:05;98029.34;;;11.58;100.00
9899;BME280;4988;49.238;6.698;2023-03-24T06:40:31;98027.34;;;11.62;100.00
9899;BME280;4988;49.238;6.698;2023-03-24T06:42:57;98029.88;;;11.64;100.00
9899;BME280;4988;49.238;6.698;2023-03-24T06:45:22;98033.50;;;11.63;100.00
9899;BME280;4988;49.238;6.698;2023-03-24T06:47:47;98031.41;;;11.68;100.00
9899;BME280;4988;49.238;6.698;2023-03-24T06:50:13;98030.00;;;11.75;100.00
9899;BME280;4988;49.238;6.698;2023-03-24T06:52:38;98038.88;;;11.75;100.00
9899;BME280;4988;49.238;6.698;2023-03-24T06:55:05;98032.47;;;11.78;100.00
9899;BME280;4988;49.238;6.698;2023-03-24T06:57:32;98036.97;;;11.78;100.00
9899;BME280;4988;49.238;6.698;2023-03-24T06:59:57;98032.22;;;11.81;100.00
9899;BME280;4988;49.238;6.698;2023-03-24T07:02:23;98028.84;;;11.79;100.00
9899;BME280;4988;49.238;6.698;2023-03-24T07:04:49;98038.00;;;11.75;100.00
9899;BME280;4988;49.238;6.698;2023-03-24T07:07:14;98031.19;;;11.71;100.00
9899;BME280;4988;49.238;6.698;2023-03-24T07:09:41;98024.88;;;11.72;100.00
9899;BME280;4988;49.238;6.698;2023-03-24T07:12:07;98026.06;;;11.68;100.00
9899;BME280;4988;49.238;6.698;2023-03-24T07:14:32;98038.41;;;11.69;100.00
9899;BME280;4988;49.238;6.698;2023-03-24T07:16:58;98030.75;;;11.77;100.00
9899;BME280;4988;49.238;6.698;2023-03-24T07:19:23;98034.19;;;11.79;100.00
9899;BME280;4988;49.238;6.698;2023-03-24T07:21:49;98043.44;;;11.73;100.00
9899;BME280;4988;49.238;6.698;2023-03-24T07:24:17;98047.16;;;11.71;100.00
9899;BME280;4988;49.238;6.698;2023-03-24T07:26:43;98040.66;;;11.75;100.00
9899;BME280;4988;49.238;6.698;2023-03-24T07:29:09;98048.34;;;11.80;100.00
9899;BME280;4988;49.238;6.698;2023-03-24T07:31:36;98047.28;;;11.82;100.00
9899;BME280;4988;49.238;6.698;2023-03-24T07:34:06;98061.25;;;11.86;100.00
9899;BME280;4988;49.238;6.698;2023-03-24T07:36:32;98052.41;;;11.85;100.00
9899;BME280;4988;49.238;6.698;2023-03-24T07:38:57;98052.53;;;11.84;100.00
9899;BME280;4988;49.238;6.698;2023-03-24T07:41:23;98067.88;;;11.80;100.00
9899;BME280;4988;49.238;6.698;2023-03-24T07:43:48;98070.56;;;11.80;100.00
9899;BME280;4988;49.238;6.698;2023-03-24T07:46:14;98062.56;;;11.80;100.00
9899;BME280;4988;49.238;6.698;2023-03-24T07:48:39;98066.47;;;11.74;100.00
9899;BME280;4988;49.238;6.698;2023-03-24T07:51:05;98057.88;;;11.84;100.00
9899;BME280;4988;49.238;6.698;2023-03-24T07:53:31;98058.47;;;11.87;100.00
9899;BME280;4988;49.238;6.698;2023-03-24T07:55:57;98052.75;;;11.94;100.00
9899;BME280;4988;49.238;6.698;2023-03-24T07:58:23;98058.28;;;11.90;100.00
9899;BME280;4988;49.238;6.698;2023-03-24T08:00:48;98063.63;;;11.90;100.00
9899;BME280;4988;49.238;6.698;2023-03-24T08:03:13;98060.00;;;11.91;100.00
9899;BME280;4988;49.238;6.698;2023-03-24T08:05:40;98064.06;;;11.97;100.00
9899;BME280;4988;49.238;6.698;2023-03-24T08:08:06;98064.50;;;12.04;100.00
9899;BME280;4988;49.238;6.698;2023-03-24T08:10:31;98054.16;;;12.12;100.00
9899;BME280;4988;49.238;6.698;2023-03-24T08:12:58;98066.97;;;12.20;100.00
9899;BME280;4988;49.238;6.698;2023-03-24T08:15:25;98063.09;;;12.24;100.00
9899;BME280;4988;49.238;6.698;2023-03-24T08:17:51;98057.13;;;12.20;100.00
9899;BME280;4988;49.238;6.698;2023-03-24T08:20:18;98059.34;;;12.27;100.00
9899;BME280;4988;49.238;6.698;2023-03-24T08:22:48;98058.84;;;12.34;100.00
9899;BME280;4988;49.238;6.698;2023-03-24T08:25:15;98055.63;;;12.29;100.00
9899;BME280;4988;49.238;6.698;2023-03-24T08:27:41;98063.66;;;12.16;100.00
9899;BME280;4988;49.238;6.698;2023-03-24T08:30:14;98072.50;;;12.17;100.00
9899;BME280;4988;49.238;6.698;2023-03-24T08:32:48;98065.91;;;12.10;100.00
9899;BME280;4988;49.238;6.698;2023-03-24T08:35:16;98077.31;;;11.99;100.00
9899;BME280;4988;49.238;6.698;2023-03-24T08:37:43;98082.41;;;12.02;100.00
9899;BME280;4988;49.238;6.698;2023-03-24T08:40:14;98079.03;;;12.00;100.00
9899;BME280;4988;49.238;6.698;2023-03-24T08:42:42;98078.44;;;11.95;100.00
9899;BME280;4988;49.238;6.698;2023-03-24T08:45:11;98086.91;;;12.01;100.00
9899;BME280;4988;49.238;6.698;2023-03-24T08:47:38;98095.50;;;11.92;100.00
9899;BME280;4988;49.238;6.698;2023-03-24T08:50:05;98118.78;;;11.90;100.00
9899;BME280;4988;49.238;6.698;2023-03-24T08:52:31;98126.84;;;11.88;100.00
9899;BME280;4988;49.238;6.698;2023-03-24T08:54:56;98179.88;;;11.93;100.00
9899;BME280;4988;49.238;6.698;2023-03-24T08:57:22;98155.47;;;11.32;100.00
9899;BME280;4988;49.238;6.698;2023-03-24T08:59:47;98170.22;;;10.96;100.00
9899;BME280;4988;49.238;6.698;2023-03-24T09:02:13;98170.22;;;10.81;100.00
9899;BME280;4988;49.238;6.698;2023-03-24T09:04:38;98158.84;;;10.65;100.00
9899;BME280;4988;49.238;6.698;2023-03-24T09:07:04;98163.69;;;10.58;100.00
9899;BME280;4988;49.238;6.698;2023-03-24T09:09:30;98170.72;;;10.59;100.00
9899;BME280;4988;49.238;6.698;2023-03-24T09:11:57;98181.63;;;10.54;100.00
9899;BME280;4988;49.238;6.698;2023-03-24T09:14:22;98188.09;;;10.50;100.00
9899;BME280;4988;49.238;6.698;2023-03-24T09:16:48;98189.16;;;10.48;100.00
9899;BME280;4988;49.238;6.698;2023-03-24T09:19:15;98205.50;;;10.41;100.00
9899;BME280;4988;49.238;6.698;2023-03-24T09:21:43;98194.19;;;10.38;100.00
9899;BME280;4988;49.238;6.698;2023-03-24T09:24:09;98198.69;;;10.36;100.00
9899;BME280;4988;49.238;6.698;2023-03-24T09:26:35;98197.31;;;10.44;100.00
9899;BME280;4988;49.238;6.698;2023-03-24T09:29:00;98204.28;;;10.47;100.00
9899;BME280;4988;49.238;6.698;2023-03-24T09:31:26;98206.16;;;10.45;100.00
9899;BME280;4988;49.238;6.698;2023-03-24T09:33:51;98204.06;;;10.50;100.00
9899;BME280;4988;49.238;6.698;2023-03-24T09:36:16;98204.56;;;10.57;100.00
9899;BME280;4988;49.238;6.698;2023-03-24T09:38:42;98206.19;;;10.59;100.00
9899;BME280;4988;49.238;6.698;2023-03-24T09:41:17;98201.03;;;10.71;100.00
9899;BME280;4988;49.238;6.698;2023-03-24T09:43:47;98208.81;;;10.74;100.00
9899;BME280;4988;49.238;6.698;2023-03-24T09:46:30;98210.94;;;10.83;100.00
9899;BME280;4988;49.238;6.698;2023-03-24T09:48:58;98208.44;;;10.94;100.00
9899;BME280;4988;49.238;6.698;2023-03-24T09:51:28;98201.56;;;11.05;100.00
9899;BME280;4988;49.238;6.698;2023-03-24T09:53:59;98210.50;;;11.18;100.00
9899;BME280;4988;49.238;6.698;2023-03-24T09:56:26;98204.78;;;11.24;100.00
9899;BME280;4988;49.238;6.698;2023-03-24T09:59:07;98204.88;;;11.23;100.00
9899;BME280;4988;49.238;6.698;2023-03-24T10:01:36;98206.34;;;11.14;100.00
9899;BME280;4988;49.238;6.698;2023-03-24T10:04:02;98217.53;;;11.19;100.00
9899;BME280;4988;49.238;6.698;2023-03-24T10:06:38;98226.31;;;11.21;100.00
9899;BME280;4988;49.238;6.698;2023-03-24T10:20:08;98234.88;;;11.81;100.00
9899;BME280;4988;49.238;6.698;2023-03-24T10:22:51;98235.41;;;12.01;100.00
9899;BME280;4988;49.238;6.698;2023-03-24T10:25:31;98238.19;;;11.99;100.00
9899;BME280;4988;49.238;6.698;2023-03-24T10:28:20;98230.41;;;11.96;100.00
9899;BME280;4988;49.238;6.698;2023-03-24T10:30:48;98230.53;;;12.07;100.00
9899;BME280;4988;49.238;6.698;2023-03-24T10:33:16;98231.84;;;12.15;100.00
9899;BME280;4988;49.238;6.698;2023-03-24T10:35:54;98232.59;;;12.30;100.00
9899;BME280;4988;49.238;6.698;2023-03-24T10:38:22;98232.06;;;12.37;100.00
9899;BME280;4988;49.238;6.698;2023-03-24T10:40:48;98225.16;;;12.48;100.00
9899;BME280;4988;49.238;6.698;2023-03-24T10:43:17;98213.72;;;12.59;100.00
9899;BME280;4988;49.238;6.698;2023-03-24T10:45:51;98223.53;;;12.71;100.00
9899;BME280;4988;49.238;6.698;2023-03-24T10:48:44;98232.31;;;12.73;100.00
9899;BME280;4988;49.238;6.698;2023-03-24T10:51:17;98230.81;;;12.82;100.00
9899;BME280;4988;49.238;6.698;2023-03-24T10:53:45;98232.94;;;13.02;100.00
9899;BME280;4988;49.238;6.698;2023-03-24T10:56:17;98244.03;;;13.09;100.00
9899;BME280;4988;49.238;6.698;2023-03-24T10:58:43;98242.13;;;13.11;100.00
9899;BME280;4988;49.238;6.698;2023-03-24T11:01:22;98224.88;;;13.28;100.00
9899;BME280;4988;49.238;6.698;2023-03-24T11:03:49;98233.13;;;13.38;100.00
9899;BME280;4988;49.238;6.698;2023-03-24T11:06:18;98227.91;;;13.61;100.00
9899;BME280;4988;49.238;6.698;2023-03-24T11:08:43;98224.91;;;13.65;99.94
9899;BME280;4988;49.238;6.698;2023-03-24T11:11:30;98227.91;;;13.61;98.99
9899;BME280;4988;49.238;6.698;2023-03-24T11:13:58;98221.88;;;13.70;97.80
9899;BME280;4988;49.238;6.698;2023-03-24T11:16:31;98229.78;;;13.72;96.10
9899;BME280;4988;49.238;6.698;2023-03-24T11:19:02;98225.88;;;13.89;97.47
9899;BME280;4988;49.238;6.698;2023-03-24T11:21:30;98215.91;;;13.91;93.60
9899;BME280;4988;49.238;6.698;2023-03-24T11:23:58;98215.38;;;14.10;93.38
9899;BME280;4988;49.238;6.698;2023-03-24T11:26:34;98215.81;;;14.28;88.44
9899;BME280;4988;49.238;6.698;2023-03-24T11:29:21;98215.56;;;14.31;86.44
9899;BME280;4988;49.238;6.698;2023-03-24T11:31:53;98225.31;;;14.43;85.03
9899;BME280;4988;49.238;6.698;2023-03-24T11:35:07;98225.09;;;14.46;82.82
9899;BME280;4988;49.238;6.698;2023-03-24T11:37:21;98220.19;;;14.29;82.08
9899;BME280;4988;49.238;6.698;2023-03-24T11:42:46;98219.00;;;14.09;76.22
9899;BME280;4988;49.238;6.698;2023-03-24T11:45:27;98240.28;;;14.10;76.59
9899;BME280;4988;49.238;6.698;2023-03-24T11:47:56;98242.88;;;14.12;72.17
9899;BME280;4988;49.238;6.698;2023-03-24T11:50:30;98247.78;;;14.18;72.00
9899;BME280;4988;49.238;6.698;2023-03-24T11:53:05;98233.66;;;14.27;70.35
9899;BME280;4988;49.238;6.698;2023-03-24T11:55:56;98241.00;;;14.37;68.60
9899;BME280;4988;49.238;6.698;2023-03-24T11:58:37;98245.75;;;14.33;67.43
9899;BME280;4988;49.238;6.698;2023-03-24T12:01:08;98244.75;;;14.23;66.42
9899;BME280;4988;49.238;6.698;2023-03-24T12:03:54;98246.69;;;14.21;67.27
9899;BME280;4988;49.238;6.698;2023-03-24T12:12:04;98242.78;;;14.25;66.19
9899;BME280;4988;49.238;6.698;2023-03-24T12:20:22;98233.63;;;14.52;68.12
9899;BME280;4988;49.238;6.698;2023-03-24T12:23:04;98238.69;;;14.68;67.13
9899;BME280;4988;49.238;6.698;2023-03-24T12:25:56;98244.66;;;14.71;64.53
9899;BME280;4988;49.238;6.698;2023-03-24T12:28:37;98231.75;;;14.76;65.96
9899;BME280;4988;49.238;6.698;2023-03-24T12:31:28;98237.66;;;14.57;63.09
9899;BME280;4988;49.238;6.698;2023-03-24T12:39:27;98241.78;;;14.14;63.29
9899;BME280;4988;49.238;6.698;2023-03-24T12:42:11;98243.50;;;14.15;65.03
9899;BME280;4988;49.238;6.698;2023-03-24T12:55:18;98238.47;;;14.35;64.25
9899;BME280;4988;49.238;6.698;2023-03-24T13:01:00;98220.28;;;14.74;61.40
9899;BME280;4988;49.238;6.698;2023-03-24T13:03:57;98230.31;;;14.95;60.61
9899;BME280;4988;49.238;6.698;2023-03-24T13:06:33;98234.94;;;15.04;60.09
9899;BME280;4988;49.238;6.698;2023-03-24T13:11:45;98218.59;;;15.30;60.81
9899;BME280;4988;49.238;6.698;2023-03-24T13:14:19;98224.44;;;15.12;61.90
9899;BME280;4988;49.238;6.698;2023-03-24T13:16:46;98224.94;;;15.06;61.68
9899;BME280;4988;49.238;6.698;2023-03-24T13:19:18;98213.59;;;14.91;59.32
9899;BME280;4988;49.238;6.698;2023-03-24T13:21:45;98209.94;;;15.04;58.74
9899;BME280;4988;49.238;6.698;2023-03-24T13:24:12;98207.88;;;15.07;59.24
9899;BME280;4988;49.238;6.698;2023-03-24T13:26:54;98202.66;;;15.06;58.31
9899;BME280;4988;49.238;6.698;2023-03-24T13:32:28;98204.25;;;14.97;57.55
9899;BME280;4988;49.238;6.698;2023-03-24T13:37:35;98218.38;;;15.10;57.78
9899;BME280;4988;49.238;6.698;2023-03-24T13:40:08;98215.41;;;15.25;57.13
9899;BME280;4988;49.238;6.698;2023-03-24T13:42:42;98213.44;;;15.38;57.90
9899;BME280;4988;49.238;6.698;2023-03-24T13:45:23;98221.44;;;15.72;58.95
9899;BME280;4988;49.238;6.698;2023-03-24T13:48:02;98225.00;;;15.84;56.32
9899;BME280;4988;49.238;6.698;2023-03-24T13:50:32;98215.44;;;15.80;56.10
9899;BME280;4988;49.238;6.698;2023-03-24T13:53:05;98213.66;;;15.58;56.50
9899;BME280;4988;49.238;6.698;2023-03-24T13:55:35;98213.97;;;15.43;56.42
9899;BME280;4988;49.238;6.698;2023-03-24T13:58:17;98213.69;;;15.47;55.30
9899;BME280;4988;49.238;6.698;2023-03-24T14:06:52;98194.72;;;15.16;56.63
9899;BME280;4988;49.238;6.698;2023-03-24T14:09:29;98205.56;;;15.25;58.46
9899;BME280;4988;49.238;6.698;2023-03-24T14:14:28;98204.94;;;15.33;57.78
9899;BME280;4988;49.238;6.698;2023-03-24T14:17:14;98209.56;;;15.42;58.53
9899;BME280;4988;49.238;6.698;2023-03-24T14:19:43;98203.81;;;15.47;56.96
9899;BME280;4988;49.238;6.698;2023-03-24T14:22:19;98209.38;;;15.11;58.25
9899;BME280;4988;49.238;6.698;2023-03-24T14:25:17;98208.84;;;14.95;60.19
9899;BME280;4988;49.238;6.698;2023-03-24T14:27:44;98205.81;;;15.00;60.45
9899;BME280;4988;49.238;6.698;2023-03-24T14:32:49;98205.69;;;15.12;58.87
9899;BME280;4988;49.238;6.698;2023-03-24T14:38:04;98196.78;;;15.23;56.97
9899;BME280;4988;49.238;6.698;2023-03-24T14:40:39;98202.13;;;15.35;57.85
9899;BME280;4988;49.238;6.698;2023-03-24T14:50:47;98200.00;;;15.61;54.02
9899;BME280;4988;49.238;6.698;2023-03-24T14:53:17;98202.44;;;15.64;52.08
9899;BME280;4988;49.238;6.698;2023-03-24T14:55:44;98202.72;;;15.50;50.69
9899;BME280;4988;49.238;6.698;2023-03-24T14:58:20;98192.25;;;15.47;49.75
9899;BME280;4988;49.238;6.698;2023-03-24T15:00:51;98187.13;;;15.43;49.30
9899;BME280;4988;49.238;6.698;2023-03-24T15:03:26;98207.50;;;15.46;48.97
9899;BME280;4988;49.238;6.698;2023-03-24T15:06:15;98202.22;;;15.56;50.18
9899;BME280;4988;49.238;6.698;2023-03-24T15:08:48;98188.69;;;15.57;50.30
9899;BME280;4988;49.238;6.698;2023-03-24T15:11:17;98189.00;;;15.64;50.94
9899;BME280;4988;49.238;6.698;2023-03-24T15:13:53;98203.66;;;15.60;50.15
9899;BME280;4988;49.238;6.698;2023-03-24T15:16:22;98182.22;;;15.60;50.17
9899;BME280;4988;49.238;6.698;2023-03-24T15:18:54;98191.38;;;15.57;51.28
9899;BME280;4988;49.238;6.698;2023-03-24T15:21:32;98190.03;;;15.52;52.04
9899;BME280;4988;49.238;6.698;2023-03-24T15:24:00;98188.91;;;15.54;51.86
9899;BME280;4988;49.238;6.698;2023-03-24T15:26:28;98182.09;;;15.50;50.66
9899;BME280;4988;49.238;6.698;2023-03-24T15:29:03;98188.31;;;15.62;51.29
9899;BME280;4988;49.238;6.698;2023-03-24T15:31:30;98173.88;;;15.63;50.83
9899;BME280;4988;49.238;6.698;2023-03-24T15:34:21;98186.13;;;15.56;50.55
9899;BME280;4988;49.238;6.698;2023-03-24T15:36:52;98196.63;;;15.48;49.87
9899;BME280;4988;49.238;6.698;2023-03-24T15:39:19;98178.59;;;15.38;50.07
9899;BME280;4988;49.238;6.698;2023-03-24T15:41:49;98178.97;;;15.45;50.64